sensor_id;sensor_type;location;lat;lon;timestamp;pressure;altitude;pressure_sealevel;temperature;humidity
56944;BME280;42848;42.524;12.052;2023-08-12T00:01:50;97207.97;;;22.76;77.15
56944;BME280;42848;42.524;12.052;2023-08-12T00:04:15;97212.72;;;22.75;76.21
56944;BME280;42848;42.524;12.052;2023-08-12T00:06:42;97207.91;;;22.65;77.07
56944;BME280;42848;42.524;12.052;2023-08-12T00:09:09;97209.09;;;22.64;76.98
56944;BME280;42848;42.524;12.052;2023-08-12T00:11:38;97208.31;;;22.60;77.19
56944;BME280;42848;42.524;12.052;2023-08-12T00:14:04;97200.00;;;22.63;77.00
56944;BME280;42848;42.524;12.052;2023-08-12T00:16:30;97201.97;;;22.59;77.67
56944;BME280;42848;42.524;12.052;2023-08-12T00:18:56;97207.88;;;22.54;77.79
56944;BME280;42848;42.524;12.052;2023-08-12T00:21:21;97205.16;;;22.65;77.37
56944;BME280;42848;42.524;12.052;2023-08-12T00:23:47;97196.00;;;22.54;78.34
56944;BME280;42848;42.524;12.052;2023-08-12T00:26:15;97197.53;;;22.44;78.50
56944;BME280;42848;42.524;12.052;2023-08-12T00:28:41;97198.31;;;22.45;78.36
56944;BME280;42848;42.524;12.052;2023-08-12T00:31:07;97195.91;;;22.39;78.50
56944;BME280;42848;42.524;12.052;2023-08-12T00:33:32;97193.56;;;22.41;78.55
56944;BME280;42848;42.524;12.052;2023-08-12T00:35:58;97200.63;;;22.35;77.95
56944;BME280;42848;42.524;12.052;2023-08-12T00:38:23;97191.91;;;22.30;77.58
56944;BME280;42848;42.524;12.052;2023-08-12T00:40:49;97191.16;;;22.33;77.37
56944;BME280;42848;42.524;12.052;2023-08-12T00:43:15;97184.03;;;22.32;76.44
56944;BME280;42848;42.524;12.052;2023-08-12T00:45:41;97182.84;;;22.36;75.14
56944;BME280;42848;42.524;12.052;2023-08-12T00:48:08;97190.41;;;22.47;74.46
56944;BME280;42848;42.524;12.052;2023-08-12T00:50:35;97186.06;;;22.42;73.62
56944;BME280;42848;42.524;12.052;2023-08-12T00:53:02;97192.38;;;22.42;72.75
56944;BME280;42848;42.524;12.052;2023-08-12T00:55:33;97186.03;;;22.38;72.45
56944;BME280;42848;42.524;12.052;2023-08-12T00:57:59;97184.84;;;22.36;72.14
56944;BME280;42848;42.524;12.052;2023-08-12T01:00:25;97188.84;;;22.46;71.90
56944;BME280;42848;42.524;12.052;2023-08-12T01:02:51;97183.25;;;22.38;71.43
56944;BME280;42848;42.524;12.052;2023-08-12T01:05:17;97175.34;;;22.33;71.31
56944;BME280;42848;42.524;12.052;2023-08-12T01:07:43;97180.47;;;22.35;70.90
56944;BME280;42848;42.524;12.052;2023-08-12T01:10:10;97170.56;;;22.30;70.51
56944;BME280;42848;42.524;12.052;2023-08-12T01:13:06;97178.56;;;22.46;70.26
56944;BME280;42848;42.524;12.052;2023-08-12T01:15:36;97178.47;;;22.28;70.98
56944;BME280;42848;42.524;12.052;2023-08-12T01:18:04;97176.09;;;22.30;70.34
56944;BME280;42848;42.524;12.052;2023-08-12T01:20:31;97178.84;;;22.30;69.45
56944;BME280;42848;42.524;12.052;2023-08-12T01:23:06;97176.47;;;22.25;69.11
56944;BME280;42848;42.524;12.052;2023-08-12T01:25:32;97173.69;;;22.25;68.60
56944;BME280;42848;42.524;12.052;2023-08-12T01:27:57;97172.94;;;22.28;67.83
56944;BME280;42848;42.524;12.052;2023-08-12T01:30:23;97172.63;;;22.40;67.19
56944;BME280;42848;42.524;12.052;2023-08-12T01:33:00;97179.28;;;22.32;66.64
56944;BME280;42848;42.524;12.052;2023-08-12T01:35:36;97162.66;;;22.29;66.21
56944;BME280;42848;42.524;12.052;2023-08-12T01:38:06;97166.22;;;22.29;65.86
56944;BME280;42848;42.524;12.052;2023-08-12T01:40:35;97157.16;;;22.32;66.20
56944;BME280;42848;42.524;12.052;2023-08-12T01:43:02;97162.63;;;22.25;66.10
56944;BME280;42848;42.524;12.052;2023-08-12T01:45:32;97169.34;;;22.24;66.13
56944;BME280;42848;42.524;12.052;2023-08-12T01:47:58;97167.72;;;22.16;66.61
56944;BME280;42848;42.524;12.052;2023-08-12T01:50:24;97166.47;;;22.10;67.50
56944;BME280;42848;42.524;12.052;2023-08-12T01:52:51;97166.47;;;22.10;67.65
56944;BME280;42848;42.524;12.052;2023-08-12T01:55:17;97163.28;;;22.04;67.92
56944;BME280;42848;42.524;12.052;2023-08-12T01:57:42;97157.00;;;22.11;68.34
56944;BME280;42848;42.524;12.052;2023-08-12T02:00:08;97163.22;;;21.97;69.30
56944;BME280;42848;42.524;12.052;2023-08-12T02:02:34;97160.00;;;21.92;69.99
56944;BME280;42848;42.524;12.052;2023-08-12T02:04:59;97162.41;;;21.97;70.55
56944;BME280;42848;42.524;12.052;2023-08-12T02:07:25;97159.59;;;21.90;71.17
56944;BME280;42848;42.524;12.052;2023-08-12T02:09:51;97156.03;;;21.85;71.96
56944;BME280;42848;42.524;12.052;2023-08-12T02:12:16;97155.19;;;21.85;72.49
56944;BME280;42848;42.524;12.052;2023-08-12T02:14:42;97154.00;;;21.79;73.57
56944;BME280;42848;42.524;12.052;2023-08-12T02:17:07;97153.66;;;21.88;74.19
56944;BME280;42848;42.524;12.052;2023-08-12T02:19:34;97150.50;;;21.85;75.21
56944;BME280;42848;42.524;12.052;2023-08-12T02:22:01;97155.19;;;21.81;76.38
56944;BME280;42848;42.524;12.052;2023-08-12T02:24:28;97152.81;;;21.80;77.63
56944;BME280;42848;42.524;12.052;2023-08-12T02:26:53;97145.25;;;21.73;78.74
56944;BME280;42848;42.524;12.052;2023-08-12T02:29:19;97150.38;;;21.71;79.44
56944;BME280;42848;42.524;12.052;2023-08-12T02:31:44;97158.25;;;21.69;80.34
56944;BME280;42848;42.524;12.052;2023-08-12T02:34:10;97150.78;;;21.73;80.51
56944;BME280;42848;42.524;12.052;2023-08-12T02:36:36;97158.19;;;21.62;81.64
56944;BME280;42848;42.524;12.052;2023-08-12T02:39:02;97157.72;;;21.53;82.89
56944;BME280;42848;42.524;12.052;2023-08-12T02:41:27;97155.34;;;21.55;83.07
56944;BME280;42848;42.524;12.052;2023-08-12T02:43:53;97154.19;;;21.56;82.68
56944;BME280;42848;42.524;12.052;2023-08-12T02:46:19;97154.25;;;21.63;82.63
56944;BME280;42848;42.524;12.052;2023-08-12T02:48:45;97149.91;;;21.66;82.47
56944;BME280;42848;42.524;12.052;2023-08-12T02:51:13;97151.03;;;21.57;81.88
56944;BME280;42848;42.524;12.052;2023-08-12T02:53:39;97151.47;;;21.63;81.66
56944;BME280;42848;42.524;12.052;2023-08-12T02:56:04;97142.41;;;21.63;81.22
56944;BME280;42848;42.524;12.052;2023-08-12T02:58:30;97144.38;;;21.62;80.90
56944;BME280;42848;42.524;12.052;2023-08-12T03:00:56;97137.66;;;21.63;80.18
56944;BME280;42848;42.524;12.052;2023-08-12T03:03:21;97139.25;;;21.64;80.16
56944;BME280;42848;42.524;12.052;2023-08-12T03:05:48;97132.53;;;21.65;79.96
56944;BME280;42848;42.524;12.052;2023-08-12T03:08:14;97140.50;;;21.70;78.96
56944;BME280;42848;42.524;12.052;2023-08-12T03:10:41;97134.59;;;21.72;78.57
56944;BME280;42848;42.524;12.052;2023-08-12T03:13:06;97144.03;;;21.67;78.97
56944;BME280;42848;42.524;12.052;2023-08-12T03:15:32;97134.50;;;21.61;79.46
56944;BME280;42848;42.524;12.052;2023-08-12T03:17:57;97140.50;;;21.70;78.67
56944;BME280;42848;42.524;12.052;2023-08-12T03:20:23;97139.69;;;21.70;78.08
56944;BME280;42848;42.524;12.052;2023-08-12T03:22:49;97145.19;;;21.66;78.22
56944;BME280;42848;42.524;12.052;2023-08-12T03:25:14;97139.31;;;21.71;77.45
56944;BME280;42848;42.524;12.052;2023-08-12T03:27:43;97140.50;;;21.70;77.53
56944;BME280;42848;42.524;12.052;2023-08-12T03:30:09;97140.44;;;21.63;78.06
56944;BME280;42848;42.524;12.052;2023-08-12T03:32:35;97132.53;;;21.65;77.42
56944;BME280;42848;42.524;12.052;2023-08-12T03:35:01;97142.06;;;21.71;77.30
56944;BME280;42848;42.524;12.052;2023-08-12T03:37:26;97142.41;;;21.66;77.44
56944;BME280;42848;42.524;12.052;2023-08-12T03:39:52;97142.41;;;21.63;77.60
56944;BME280;42848;42.524;12.052;2023-08-12T03:42:17;97141.63;;;21.66;77.36
56944;BME280;42848;42.524;12.052;2023-08-12T03:44:44;97142.41;;;21.63;76.92
56944;BME280;42848;42.524;12.052;2023-08-12T03:47:10;97142.81;;;21.65;76.79
56944;BME280;42848;42.524;12.052;2023-08-12T03:49:37;97147.13;;;21.62;76.67
56944;BME280;42848;42.524;12.052;2023-08-12T03:52:03;97146.69;;;21.56;77.15
56944;BME280;42848;42.524;12.052;2023-08-12T03:54:28;97157.00;;;21.63;77.05
56944;BME280;42848;42.524;12.052;2023-08-12T03:56:54;97159.69;;;21.56;77.06
56944;BME280;42848;42.524;12.052;2023-08-12T03:59:20;97158.97;;;21.59;76.96
56944;BME280;42848;42.524;12.052;2023-08-12T04:01:45;97159.69;;;21.56;77.19
56944;BME280;42848;42.524;12.052;2023-08-12T04:04:11;97158.84;;;21.48;77.79
56944;BME280;42848;42.524;12.052;2023-08-12T04:06:37;97159.66;;;21.49;77.76
56944;BME280;42848;42.524;12.052;2023-08-12T04:09:02;97158.13;;;21.55;77.48
56944;BME280;42848;42.524;12.052;2023-08-12T04:11:28;97156.44;;;21.43;78.46
56944;BME280;42848;42.524;12.052;2023-08-12T04:13:54;97163.63;;;21.51;77.92
56944;BME280;42848;42.524;12.052;2023-08-12T04:16:19;97154.13;;;21.49;77.88
56944;BME280;42848;42.524;12.052;2023-08-12T04:18:45;97164.41;;;21.52;78.07
56944;BME280;42848;42.524;12.052;2023-08-12T04:21:10;97165.84;;;21.39;78.76
56944;BME280;42848;42.524;12.052;2023-08-12T04:23:36;97159.59;;;21.42;78.45
56944;BME280;42848;42.524;12.052;2023-08-12T04:26:02;97159.50;;;21.35;78.67
56944;BME280;42848;42.524;12.052;2023-08-12T04:28:27;97151.63;;;21.37;78.85
56944;BME280;42848;42.524;12.052;2023-08-12T04:30:53;97155.97;;;21.38;79.23
56944;BME280;42848;42.524;12.052;2023-08-12T04:33:18;97157.22;;;21.44;78.96
56944;BME280;42848;42.524;12.052;2023-08-12T04:35:47;97150.81;;;21.33;79.60
56944;BME280;42848;42.524;12.052;2023-08-12T04:38:13;97157.50;;;21.32;79.02
56944;BME280;42848;42.524;12.052;2023-08-12T04:40:39;97163.44;;;21.34;78.96
56944;BME280;42848;42.524;12.052;2023-08-12T04:43:05;97151.25;;;21.38;79.32
56944;BME280;42848;42.524;12.052;2023-08-12T04:45:30;97153.16;;;21.31;79.80
56944;BME280;42848;42.524;12.052;2023-08-12T04:47:57;97157.06;;;21.29;79.93
56944;BME280;42848;42.524;12.052;2023-08-12T04:50:23;97153.16;;;21.31;80.04
56944;BME280;42848;42.524;12.052;2023-08-12T04:52:48;97157.94;;;21.34;79.47
56944;BME280;42848;42.524;12.052;2023-08-12T04:55:14;97159.59;;;21.42;78.97
56944;BME280;42848;42.524;12.052;2023-08-12T04:57:40;97158.81;;;21.45;78.86
56944;BME280;42848;42.524;12.052;2023-08-12T05:00:06;97161.13;;;21.39;79.58
56944;BME280;42848;42.524;12.052;2023-08-12T05:02:35;97164.81;;;21.54;77.97
56944;BME280;42848;42.524;12.052;2023-08-12T05:05:01;97159.69;;;21.52;78.27
56944;BME280;42848;42.524;12.052;2023-08-12T05:07:27;97161.28;;;21.57;78.33
56944;BME280;42848;42.524;12.052;2023-08-12T05:09:53;97155.44;;;21.62;78.14
56944;BME280;42848;42.524;12.052;2023-08-12T05:12:19;97162.16;;;21.65;78.16
56944;BME280;42848;42.524;12.052;2023-08-12T05:14:44;97160.56;;;21.64;78.29
56944;BME280;42848;42.524;12.052;2023-08-12T05:17:10;97170.06;;;21.66;78.37
56944;BME280;42848;42.524;12.052;2023-08-12T05:19:35;97165.00;;;21.75;78.37
56944;BME280;42848;42.524;12.052;2023-08-12T05:22:01;97178.09;;;21.82;78.42
56944;BME280;42848;42.524;12.052;2023-08-12T05:24:27;97176.53;;;21.84;78.26
56944;BME280;42848;42.524;12.052;2023-08-12T05:26:52;97171.84;;;21.89;78.30
56944;BME280;42848;42.524;12.052;2023-08-12T05:29:18;97174.22;;;21.94;78.00
56944;BME280;42848;42.524;12.052;2023-08-12T05:31:43;97181.72;;;21.90;79.40
56944;BME280;42848;42.524;12.052;2023-08-12T05:34:09;97178.22;;;21.96;79.40
56944;BME280;42848;42.524;12.052;2023-08-12T05:36:35;97175.84;;;21.95;79.70
56944;BME280;42848;42.524;12.052;2023-08-12T05:39:01;97165.19;;;21.97;79.94
56944;BME280;42848;42.524;12.052;2023-08-12T05:41:28;97163.22;;;22.01;80.03
56944;BME280;42848;42.524;12.052;2023-08-12T05:43:54;97179.13;;;22.07;80.28
56944;BME280;42848;42.524;12.052;2023-08-12T05:46:20;97164.16;;;22.16;79.41
56944;BME280;42848;42.524;12.052;2023-08-12T05:48:46;97165.75;;;22.20;80.13
56944;BME280;42848;42.524;12.052;2023-08-12T05:51:11;97179.22;;;22.25;79.37
56944;BME280;42848;42.524;12.052;2023-08-12T05:53:37;97173.75;;;22.32;79.04
56944;BME280;42848;42.524;12.052;2023-08-12T05:56:03;97174.16;;;22.34;78.79
56944;BME280;42848;42.524;12.052;2023-08-12T05:58:29;97176.97;;;22.41;79.40
56944;BME280;42848;42.524;12.052;2023-08-12T06:00:54;97177.00;;;22.49;80.07
56944;BME280;42848;42.524;12.052;2023-08-12T06:03:20;97175.44;;;22.51;78.99
56944;BME280;42848;42.524;12.052;2023-08-12T06:05:46;97175.44;;;22.55;78.62
56944;BME280;42848;42.524;12.052;2023-08-12T06:08:13;97180.63;;;22.60;78.49
56944;BME280;42848;42.524;12.052;2023-08-12T06:10:38;97181.44;;;22.60;79.03
56944;BME280;42848;42.524;12.052;2023-08-12T06:13:04;97185.78;;;22.61;78.84
56944;BME280;42848;42.524;12.052;2023-08-12T06:15:30;97188.19;;;22.70;79.29
56944;BME280;42848;42.524;12.052;2023-08-12T06:17:56;97189.38;;;22.69;79.44
56944;BME280;42848;42.524;12.052;2023-08-12T06:20:23;97190.19;;;22.77;79.91
56944;BME280;42848;42.524;12.052;2023-08-12T06:22:50;97194.56;;;22.78;79.07
56944;BME280;42848;42.524;12.052;2023-08-12T06:25:16;97190.63;;;22.82;78.88
56944;BME280;42848;42.524;12.052;2023-08-12T06:27:43;97186.31;;;22.88;79.58
56944;BME280;42848;42.524;12.052;2023-08-12T06:30:09;97197.41;;;22.88;78.26
56944;BME280;42848;42.524;12.052;2023-08-12T06:32:35;97181.59;;;22.92;79.09
56944;BME280;42848;42.524;12.052;2023-08-12T06:35:01;97191.50;;;23.01;79.37
56944;BME280;42848;42.524;12.052;2023-08-12T06:37:27;97191.16;;;23.09;79.57
56944;BME280;42848;42.524;12.052;2023-08-12T06:39:52;97183.63;;;23.10;78.60
56944;BME280;42848;42.524;12.052;2023-08-12T06:42:18;97187.22;;;23.21;79.32
56944;BME280;42848;42.524;12.052;2023-08-12T06:44:45;97197.13;;;23.15;74.23
56944;BME280;42848;42.524;12.052;2023-08-12T06:47:11;97195.53;;;23.21;75.01
56944;BME280;42848;42.524;12.052;2023-08-12T06:49:36;97190.81;;;23.25;74.53
56944;BME280;42848;42.524;12.052;2023-08-12T06:52:02;97190.00;;;23.28;74.93
56944;BME280;42848;42.524;12.052;2023-08-12T06:54:28;97185.28;;;23.36;76.27
56944;BME280;42848;42.524;12.052;2023-08-12T06:56:53;97194.41;;;23.43;75.72
56944;BME280;42848;42.524;12.052;2023-08-12T06:59:19;97181.72;;;23.39;73.40
56944;BME280;42848;42.524;12.052;2023-08-12T07:01:44;97189.63;;;23.40;74.67
56944;BME280;42848;42.524;12.052;2023-08-12T07:04:10;97180.56;;;23.43;73.81
56944;BME280;42848;42.524;12.052;2023-08-12T07:06:36;97178.97;;;23.56;76.19
56944;BME280;42848;42.524;12.052;2023-08-12T07:09:02;97182.16;;;23.59;75.34
56944;BME280;42848;42.524;12.052;2023-08-12T07:11:28;97179.03;;;23.64;75.88
56944;BME280;42848;42.524;12.052;2023-08-12T07:13:54;97184.59;;;23.71;74.59
56944;BME280;42848;42.524;12.052;2023-08-12T07:16:19;97180.63;;;23.79;75.25
56944;BME280;42848;42.524;12.052;2023-08-12T07:18:45;97188.94;;;23.86;74.10
56944;BME280;42848;42.524;12.052;2023-08-12T07:21:10;97188.53;;;23.84;73.00
56944;BME280;42848;42.524;12.052;2023-08-12T07:23:36;97190.94;;;23.96;72.62
56944;BME280;42848;42.524;12.052;2023-08-12T07:26:01;97195.69;;;23.99;73.96
56944;BME280;42848;42.524;12.052;2023-08-12T07:28:27;97197.28;;;24.07;74.57
56944;BME280;42848;42.524;12.052;2023-08-12T07:30:52;97186.97;;;24.01;73.37
56944;BME280;42848;42.524;12.052;2023-08-12T07:33:19;97188.94;;;24.00;72.20
56944;BME280;42848;42.524;12.052;2023-08-12T07:35:45;97190.13;;;24.13;73.37
56944;BME280;42848;42.524;12.052;2023-08-12T07:38:11;97193.28;;;24.26;72.66
56944;BME280;42848;42.524;12.052;2023-08-12T07:40:36;97188.91;;;24.22;70.63
56944;BME280;42848;42.524;12.052;2023-08-12T07:43:02;97192.91;;;24.17;71.55
56944;BME280;42848;42.524;12.052;2023-08-12T07:45:29;97188.56;;;24.34;68.90
56944;BME280;42848;42.524;12.052;2023-08-12T07:47:54;97194.06;;;24.41;68.39
56944;BME280;42848;42.524;12.052;2023-08-12T07:50:20;97187.72;;;24.48;69.96
56944;BME280;42848;42.524;12.052;2023-08-12T07:52:45;97195.69;;;24.42;67.02
56944;BME280;42848;42.524;12.052;2023-08-12T07:55:11;97175.84;;;24.40;69.74
56944;BME280;42848;42.524;12.052;2023-08-12T07:57:37;97185.34;;;24.60;69.69
56944;BME280;42848;42.524;12.052;2023-08-12T08:00:03;97181.34;;;24.65;68.16
56944;BME280;42848;42.524;12.052;2023-08-12T08:02:30;97185.34;;;24.60;66.16
56944;BME280;42848;42.524;12.052;2023-08-12T08:04:56;97187.69;;;24.69;67.96
56944;BME280;42848;42.524;12.052;2023-08-12T08:07:21;97189.59;;;24.90;67.72
56944;BME280;42848;42.524;12.052;2023-08-12T08:09:47;97185.63;;;24.84;66.00
56944;BME280;42848;42.524;12.052;2023-08-12T08:12:12;97187.63;;;24.83;66.96
56944;BME280;42848;42.524;12.052;2023-08-12T08:14:38;97186.81;;;24.90;66.67
56944;BME280;42848;42.524;12.052;2023-08-12T08:17:03;97183.66;;;24.88;67.06
56944;BME280;42848;42.524;12.052;2023-08-12T08:19:29;97178.03;;;24.95;66.67
56944;BME280;42848;42.524;12.052;2023-08-12T08:21:56;97185.91;;;25.14;65.40
56944;BME280;42848;42.524;12.052;2023-08-12T08:24:22;97190.34;;;25.05;63.33
56944;BME280;42848;42.524;12.052;2023-08-12T08:26:48;97197.84;;;25.11;64.78
56944;BME280;42848;42.524;12.052;2023-08-12T08:29:13;97182.00;;;25.08;66.30
56944;BME280;42848;42.524;12.052;2023-08-12T08:31:39;97179.19;;;25.15;66.95
56944;BME280;42848;42.524;12.052;2023-08-12T08:34:05;97186.69;;;25.26;63.54
56944;BME280;42848;42.524;12.052;2023-08-12T08:36:31;97182.66;;;25.34;64.13
56944;BME280;42848;42.524;12.052;2023-08-12T08:38:57;97177.03;;;25.44;65.83
56944;BME280;42848;42.524;12.052;2023-08-12T08:41:23;97184.19;;;25.45;63.31
56944;BME280;42848;42.524;12.052;2023-08-12T08:43:49;97190.41;;;25.71;56.10
56944;BME280;42848;42.524;12.052;2023-08-12T08:46:19;97192.75;;;25.69;59.91
56944;BME280;42848;42.524;12.052;2023-08-12T08:48:46;97191.56;;;25.73;63.89
56944;BME280;42848;42.524;12.052;2023-08-12T08:51:14;97185.25;;;25.62;64.76
56944;BME280;42848;42.524;12.052;2023-08-12T08:53:40;97191.06;;;25.89;62.52
56944;BME280;42848;42.524;12.052;2023-08-12T08:56:07;97187.53;;;25.82;60.93
56944;BME280;42848;42.524;12.052;2023-08-12T08:58:34;97186.34;;;25.83;57.80
56944;BME280;42848;42.524;12.052;2023-08-12T09:01:00;97185.84;;;25.95;60.83
56944;BME280;42848;42.524;12.052;2023-08-12T09:03:28;97188.66;;;25.88;59.27
56944;BME280;42848;42.524;12.052;2023-08-12T09:05:55;97188.69;;;25.84;58.16
56944;BME280;42848;42.524;12.052;2023-08-12T09:08:23;97185.25;;;26.14;58.32
56944;BME280;42848;42.524;12.052;2023-08-12T09:10:50;97188.88;;;26.11;53.70
56944;BME280;42848;42.524;12.052;2023-08-12T09:13:15;97183.41;;;26.00;56.89
56944;BME280;42848;42.524;12.052;2023-08-12T09:15:44;97175.75;;;26.15;59.90
56944;BME280;42848;42.524;12.052;2023-08-12T09:18:10;97183.56;;;26.27;61.06
56944;BME280;42848;42.524;12.052;2023-08-12T09:20:36;97189.88;;;26.35;59.21
56944;BME280;42848;42.524;12.052;2023-08-12T09:23:02;97182.38;;;26.28;55.94
56944;BME280;42848;42.524;12.052;2023-08-12T09:25:29;97181.50;;;26.39;58.44
56944;BME280;42848;42.524;12.052;2023-08-12T09:27:55;97178.91;;;26.17;57.65
56944;BME280;42848;42.524;12.052;2023-08-12T09:30:23;97189.78;;;26.46;60.03
56944;BME280;42848;42.524;12.052;2023-08-12T09:33:03;97167.03;;;26.54;61.30
56944;BME280;42848;42.524;12.052;2023-08-12T09:35:39;97183.31;;;26.56;55.81
56944;BME280;42848;42.524;12.052;2023-08-12T09:38:12;97178.56;;;26.53;56.66
56944;BME280;42848;42.524;12.052;2023-08-12T09:40:41;97188.03;;;26.59;58.70
56944;BME280;42848;42.524;12.052;2023-08-12T09:43:06;97175.25;;;26.65;55.80
56944;BME280;42848;42.524;12.052;2023-08-12T09:45:34;97174.41;;;26.68;55.80
56944;BME280;42848;42.524;12.052;2023-08-12T09:48:00;97177.50;;;26.77;52.57
56944;BME280;42848;42.524;12.052;2023-08-12T09:50:26;97169.81;;;26.88;54.09
56944;BME280;42848;42.524;12.052;2023-08-12T09:52:53;97167.41;;;26.90;55.59
56944;BME280;42848;42.524;12.052;2023-08-12T09:55:22;97159.84;;;26.87;56.63
56944;BME280;42848;42.524;12.052;2023-08-12T09:57:52;97164.84;;;27.07;55.59
56944;BME280;42848;42.524;12.052;2023-08-12T10:00:19;97168.50;;;26.97;50.17
56944;BME280;42848;42.524;12.052;2023-08-12T10:02:48;97170.78;;;27.09;50.56
56944;BME280;42848;42.524;12.052;2023-08-12T10:05:19;97166.47;;;27.01;51.29
56944;BME280;42848;42.524;12.052;2023-08-12T10:07:47;97166.81;;;27.06;50.84
56944;BME280;42848;42.524;12.052;2023-08-12T10:10:14;97167.50;;;27.14;51.14
56944;BME280;42848;42.524;12.052;2023-08-12T10:12:41;97161.13;;;27.17;51.11
56944;BME280;42848;42.524;12.052;2023-08-12T10:15:08;97167.44;;;27.21;51.84
56944;BME280;42848;42.524;12.052;2023-08-12T10:17:34;97161.22;;;27.10;51.18
56944;BME280;42848;42.524;12.052;2023-08-12T10:20:07;97168.34;;;27.41;52.68
56944;BME280;42848;42.524;12.052;2023-08-12T10:22:35;97168.84;;;27.33;53.59
56944;BME280;42848;42.524;12.052;2023-08-12T10:25:04;97157.84;;;27.22;55.91
56944;BME280;42848;42.524;12.052;2023-08-12T10:27:33;97159.34;;;27.30;55.11
56944;BME280;42848;42.524;12.052;2023-08-12T10:29:58;97155.97;;;27.42;55.46
56944;BME280;42848;42.524;12.052;2023-08-12T10:32:25;97154.56;;;27.31;55.12
56944;BME280;42848;42.524;12.052;2023-08-12T10:34:56;97147.72;;;27.35;57.29
56944;BME280;42848;42.524;12.052;2023-08-12T10:37:23;97146.09;;;27.65;51.85
56944;BME280;42848;42.524;12.052;2023-08-12T10:39:50;97139.41;;;27.59;51.83
56944;BME280;42848;42.524;12.052;2023-08-12T10:42:45;97142.28;;;27.52;52.03
56944;BME280;42848;42.524;12.052;2023-08-12T10:45:13;97127.88;;;27.57;55.00
56944;BME280;42848;42.524;12.052;2023-08-12T10:50:21;97133.38;;;27.60;54.92
56944;BME280;42848;42.524;12.052;2023-08-12T10:52:47;97128.66;;;27.57;53.84
56944;BME280;42848;42.524;12.052;2023-08-12T10:55:23;97130.94;;;27.66;56.34
56944;BME280;42848;42.524;12.052;2023-08-12T10:57:49;97129.16;;;28.02;49.94
56944;BME280;42848;42.524;12.052;2023-08-12T11:00:26;97132.28;;;28.04;47.51
56944;BME280;42848;42.524;12.052;2023-08-12T11:02:56;97136.38;;;28.00;47.59
56944;BME280;42848;42.524;12.052;2023-08-12T11:05:24;97128.72;;;28.04;48.31
56944;BME280;42848;42.524;12.052;2023-08-12T11:10:23;97132.28;;;28.28;48.81
56944;BME280;42848;42.524;12.052;2023-08-12T11:15:17;97120.28;;;28.31;49.57
56944;BME280;42848;42.524;12.052;2023-08-12T11:17:46;97123.13;;;28.27;47.57
56944;BME280;42848;42.524;12.052;2023-08-12T11:20:13;97121.44;;;28.33;47.74
56944;BME280;42848;42.524;12.052;2023-08-12T11:22:42;97116.38;;;28.25;47.04
56944;BME280;42848;42.524;12.052;2023-08-12T11:25:11;97110.13;;;28.60;51.39
56944;BME280;42848;42.524;12.052;2023-08-12T11:30:07;97122.81;;;28.45;49.23
56944;BME280;42848;42.524;12.052;2023-08-12T11:32:33;97121.25;;;28.44;46.51
56944;BME280;42848;42.524;12.052;2023-08-12T11:34:59;97111.78;;;28.15;46.40
56944;BME280;42848;42.524;12.052;2023-08-12T11:37:25;97101.69;;;28.44;48.61
56944;BME280;42848;42.524;12.052;2023-08-12T11:39:53;97098.81;;;28.68;48.42
56944;BME280;42848;42.524;12.052;2023-08-12T11:42:19;97091.56;;;28.50;46.87
56944;BME280;42848;42.524;12.052;2023-08-12T11:44:44;97090.38;;;28.91;48.53
56944;BME280;42848;42.524;12.052;2023-08-12T11:47:10;97097.91;;;28.94;48.24
56944;BME280;42848;42.524;12.052;2023-08-12T11:49:35;97082.47;;;28.86;48.54
56944;BME280;42848;42.524;12.052;2023-08-12T11:52:01;97085.00;;;28.80;47.20
56944;BME280;42848;42.524;12.052;2023-08-12T11:54:27;97080.41;;;28.70;46.34
56944;BME280;42848;42.524;12.052;2023-08-12T11:56:53;97086.72;;;28.74;45.23
56944;BME280;42848;42.524;12.052;2023-08-12T11:59:21;97077.97;;;28.72;45.28
56944;BME280;42848;42.524;12.052;2023-08-12T12:01:49;97078.53;;;28.83;45.03
56944;BME280;42848;42.524;12.052;2023-08-12T12:04:16;97079.94;;;29.11;45.10
56944;BME280;42848;42.524;12.052;2023-08-12T12:06:44;97074.94;;;29.03;42.95
56944;BME280;42848;42.524;12.052;2023-08-12T12:09:10;97079.19;;;28.91;43.89
56944;BME280;42848;42.524;12.052;2023-08-12T12:11:36;97082.69;;;28.95;44.66
56944;BME280;42848;42.524;12.052;2023-08-12T12:14:03;97076.31;;;29.31;43.73
56944;BME280;42848;42.524;12.052;2023-08-12T12:16:46;97080.44;;;29.06;42.64
56944;BME280;42848;42.524;12.052;2023-08-12T12:19:19;97080.28;;;29.13;42.67
56944;BME280;42848;42.524;12.052;2023-08-12T12:21:52;97062.28;;;29.14;42.84
56944;BME280;42848;42.524;12.052;2023-08-12T12:24:20;97069.72;;;29.21;42.67
56944;BME280;42848;42.524;12.052;2023-08-12T12:26:47;97073.31;;;29.22;42.98
56944;BME280;42848;42.524;12.052;2023-08-12T12:29:13;97076.31;;;29.47;43.74
56944;BME280;42848;42.524;12.052;2023-08-12T12:31:40;97075.78;;;29.36;42.48
56944;BME280;42848;42.524;12.052;2023-08-12T12:34:07;97087.38;;;29.18;38.32
56944;BME280;42848;42.524;12.052;2023-08-12T12:36:37;97083.47;;;29.32;37.34
56944;BME280;42848;42.524;12.052;2023-08-12T12:39:04;97071.78;;;29.37;38.48
56944;BME280;42848;42.524;12.052;2023-08-12T12:41:31;97072.28;;;29.32;37.42
56944;BME280;42848;42.524;12.052;2023-08-12T12:44:00;97076.13;;;29.38;36.72
56944;BME280;42848;42.524;12.052;2023-08-12T12:46:27;97073.91;;;29.49;38.05
56944;BME280;42848;42.524;12.052;2023-08-12T12:48:52;97066.19;;;29.53;38.06
56944;BME280;42848;42.524;12.052;2023-08-12T12:51:18;97069.44;;;29.52;38.03
56944;BME280;42848;42.524;12.052;2023-08-12T12:53:44;97061.66;;;29.59;38.62
56944;BME280;42848;42.524;12.052;2023-08-12T12:56:09;97066.03;;;29.60;38.22
56944;BME280;42848;42.524;12.052;2023-08-12T12:58:36;97067.69;;;29.58;36.35